createdAt,value
2023-10-20T00:23:37.341Z,52.50
2023-10-20T00:26:05.668Z,52.72
2023-10-20T00:28:33.730Z,52.28
2023-10-20T00:31:03.203Z,54.58
2023-10-20T00:33:31.310Z,54.72
2023-10-20T00:35:59.610Z,51.17
2023-10-20T00:38:27.721Z,47.08
2023-10-20T00:40:59.098Z,50.42
2023-10-20T00:43:35.837Z,50.92
2023-10-20T00:46:05.380Z,49.78
2023-10-20T00:48:33.972Z,51.75
2023-10-20T00:51:02.692Z,52.72
2023-10-20T00:53:32.099Z,54.20
2023-10-20T00:56:02.898Z,50.85
2023-10-20T00:58:31.253Z,50.10
2023-10-20T01:00:59.787Z,49.38
2023-10-20T01:03:28.731Z,48.53
2023-10-20T01:05:58.201Z,52.80
2023-10-20T01:08:27.685Z,54.72
2023-10-20T01:10:55.872Z,50.53
2023-10-20T01:13:25.454Z,51.13
2023-10-20T01:15:54.963Z,49.67
2023-10-20T01:18:23.439Z,53.20
2023-10-20T01:20:51.730Z,50.97
2023-10-20T01:23:19.791Z,48.97
2023-10-20T01:25:49.488Z,51.30
2023-10-20T01:28:18.143Z,54.10
2023-10-20T01:30:46.833Z,53.80
2023-10-20T01:33:14.926Z,48.65
2023-10-20T01:35:43.229Z,49.47
2023-10-20T01:38:11.493Z,51.00
2023-10-20T01:40:39.623Z,48.65
2023-10-20T01:43:09.105Z,54.53
2023-10-20T01:45:37.169Z,50.50
2023-10-20T01:48:05.663Z,53.90
2023-10-20T01:50:34.633Z,52.53
2023-10-20T01:53:03.339Z,54.03
2023-10-20T01:55:31.455Z,50.83
2023-10-20T01:57:59.676Z,48.20
2023-10-20T02:00:29.185Z,54.65
2023-10-20T02:02:57.497Z,52.30
2023-10-20T02:05:25.768Z,50.65
2023-10-20T02:07:53.826Z,51.92
2023-10-20T02:10:22.040Z,51.05
2023-10-20T02:12:50.668Z,52.30
2023-10-20T02:15:19.138Z,52.13
2023-10-20T02:17:48.658Z,52.80
2023-10-20T02:20:22.192Z,54.50
2023-10-20T02:22:51.305Z,53.25
2023-10-20T02:25:21.211Z,53.28
2023-10-20T02:27:49.803Z,55.80
2023-10-20T02:30:19.419Z,54.13
2023-10-20T02:32:49.395Z,53.58
2023-10-20T02:35:17.841Z,56.83
2023-10-20T02:37:46.118Z,56.15
2023-10-20T02:40:14.988Z,52.70
2023-10-20T02:42:44.933Z,53.05
2023-10-20T02:45:13.190Z,49.25
2023-10-20T02:47:41.503Z,49.25
2023-10-20T02:50:12.276Z,45.13
2023-10-20T02:52:40.909Z,44.67
2023-10-20T02:55:09.636Z,45.85
2023-10-20T02:57:38.505Z,41.83
2023-10-20T03:00:11.882Z,44.33
2023-10-20T03:02:40.314Z,41.25
2023-10-20T03:05:10.726Z,42.50
2023-10-20T03:07:40.372Z,39.95
2023-10-20T03:10:09.582Z,37.85
2023-10-20T03:12:37.776Z,37.63
2023-10-20T03:15:08.000Z,36.88
2023-10-20T03:17:36.353Z,36.85
2023-10-20T03:20:09.626Z,38.65
2023-10-20T03:22:38.686Z,40.65
2023-10-20T03:25:11.296Z,41.13
2023-10-20T03:27:40.354Z,38.20
2023-10-20T03:30:09.636Z,37.95
2023-10-20T03:32:38.207Z,40.25
2023-10-20T03:35:08.385Z,37.13
2023-10-20T03:37:36.768Z,38.13
2023-10-20T03:40:05.602Z,39.60
2023-10-20T03:42:35.070Z,38.47
2023-10-20T03:45:03.536Z,38.72
2023-10-20T03:47:35.927Z,39.63
2023-10-20T03:50:04.273Z,37.58
2023-10-20T03:52:32.402Z,41.70
2023-10-20T03:55:01.584Z,33.55
2023-10-20T03:57:30.565Z,36.92
2023-10-20T04:00:16.093Z,44.40
2023-10-20T04:02:44.606Z,37.85
2023-10-20T04:05:16.201Z,39.17
2023-10-20T04:07:45.071Z,40.92
2023-10-20T04:10:13.556Z,42.80
2023-10-20T04:12:42.971Z,40.15
2023-10-20T04:15:16.418Z,39.45
2023-10-20T04:17:53.088Z,40.45
2023-10-20T04:20:22.444Z,35.25
2023-10-20T04:22:51.725Z,37.33
2023-10-20T04:25:21.029Z,36.65
2023-10-20T04:27:53.220Z,38.83
2023-10-20T04:30:44.339Z,38.38
2023-10-20T04:33:29.907Z,38.67
2023-10-20T04:36:15.946Z,34.75
2023-10-20T04:39:01.405Z,36.47
2023-10-20T04:41:47.538Z,36.22
2023-10-20T04:44:33.507Z,43.65
2023-10-20T04:47:21.594Z,38.78
2023-10-20T04:50:18.909Z,38.17
2023-10-20T04:52:59.588Z,36.80
2023-10-20T04:55:45.769Z,39.70
2023-10-20T04:58:19.260Z,40.47
2023-10-20T05:00:47.389Z,42.45
2023-10-20T05:03:17.593Z,47.92
2023-10-20T05:05:54.681Z,43.20
2023-10-20T05:08:24.844Z,40.50
2023-10-20T05:10:55.393Z,40.30
2023-10-20T05:13:23.722Z,40.45
2023-10-20T05:15:52.022Z,38.40
2023-10-20T05:18:21.644Z,44.28
2023-10-20T05:20:49.971Z,42.95
2023-10-20T05:23:18.009Z,40.72
2023-10-20T05:25:49.461Z,50.25
2023-10-20T05:28:18.575Z,46.60
2023-10-20T05:30:47.255Z,46.00
2023-10-20T05:33:16.664Z,41.83
2023-10-20T05:35:46.330Z,39.65
2023-10-20T05:38:14.631Z,40.83
2023-10-20T05:40:42.839Z,48.55
2023-10-20T05:43:11.014Z,44.70
2023-10-20T05:45:40.787Z,55.38
2023-10-20T05:48:10.668Z,50.97
2023-10-20T05:50:40.146Z,44.85
2023-10-20T05:53:09.895Z,43.42
2023-10-20T05:55:38.184Z,55.92
2023-10-20T05:58:07.485Z,49.05
2023-10-20T06:00:45.945Z,40.90
2023-10-20T06:03:21.798Z,42.67
2023-10-20T06:05:49.943Z,38.75
2023-10-20T06:08:19.862Z,48.70
2023-10-20T06:10:48.060Z,47.08
2023-10-20T06:13:16.896Z,47.22
2023-10-20T06:15:46.001Z,50.45
2023-10-20T06:18:25.117Z,48.78
2023-10-20T06:20:57.710Z,44.05
2023-10-20T06:23:27.391Z,46.30
2023-10-20T06:25:55.802Z,47.15
2023-10-20T06:28:23.940Z,41.70
2023-10-20T06:30:52.329Z,54.17
2023-10-20T06:33:20.579Z,44.55
2023-10-20T06:35:53.376Z,47.15
2023-10-20T06:38:31.897Z,49.88
2023-10-20T06:41:01.625Z,46.92
2023-10-20T06:43:30.954Z,50.55
2023-10-20T06:45:59.293Z,46.00
2023-10-20T06:48:27.880Z,40.22
2023-10-20T06:50:56.538Z,48.85
2023-10-20T06:53:24.916Z,43.00
2023-10-20T06:58:26.230Z,41.70
2023-10-20T07:00:54.808Z,43.65
2023-10-20T07:03:23.090Z,47.05
2023-10-20T07:05:51.138Z,38.00
2023-10-20T07:08:19.544Z,43.50
2023-10-20T07:10:48.040Z,52.30
2023-10-20T07:13:16.450Z,42.17
2023-10-20T07:15:46.222Z,45.47
2023-10-20T07:18:14.580Z,43.45
2023-10-20T07:20:43.020Z,38.13
2023-10-20T07:23:11.534Z,43.55
2023-10-20T07:25:39.820Z,42.88
2023-10-20T07:28:08.361Z,43.92
2023-10-20T07:30:37.184Z,43.45
2023-10-20T07:33:08.513Z,40.50
2023-10-20T07:35:39.899Z,43.88
2023-10-20T07:38:09.276Z,45.35
2023-10-20T07:40:36.498Z,42.58
2023-10-20T07:43:07.551Z,39.40
2023-10-20T07:45:39.825Z,42.25
2023-10-20T07:48:12.269Z,39.20
2023-10-20T07:50:42.675Z,39.90
2023-10-20T07:53:12.283Z,36.25
2023-10-20T07:55:40.467Z,41.08
2023-10-20T07:58:10.370Z,34.30
2023-10-20T08:00:38.532Z,40.30
2023-10-20T08:03:07.544Z,38.28
2023-10-20T08:05:37.977Z,36.95
2023-10-20T08:08:07.467Z,33.72
2023-10-20T08:10:35.912Z,34.20
2023-10-20T08:13:05.026Z,39.22
2023-10-20T08:15:38.382Z,33.75
2023-10-20T08:18:08.249Z,32.70
2023-10-20T08:20:38.022Z,38.63
2023-10-20T08:23:06.586Z,42.38
2023-10-20T08:25:39.142Z,36.60
2023-10-20T08:28:09.017Z,43.35
2023-10-20T08:30:37.309Z,34.20
2023-10-20T08:33:06.659Z,41.35
2023-10-20T08:35:35.587Z,41.20
2023-10-20T08:38:05.803Z,36.60
2023-10-20T08:40:55.793Z,37.17
2023-10-20T08:43:26.924Z,35.00
2023-10-20T08:45:55.934Z,34.70
2023-10-20T08:48:25.132Z,42.53
2023-10-20T08:50:56.005Z,36.63
2023-10-20T08:53:26.977Z,35.80
2023-10-20T08:55:55.483Z,39.15
2023-10-20T08:58:28.062Z,37.05
2023-10-20T09:00:59.297Z,38.35
2023-10-20T09:03:28.956Z,34.70
2023-10-20T09:06:06.547Z,42.80
2023-10-20T09:08:36.407Z,41.47
2023-10-20T09:11:04.740Z,39.33
2023-10-20T09:13:35.829Z,39.45
2023-10-20T09:16:09.241Z,52.53
2023-10-20T09:18:44.963Z,42.65
2023-10-20T09:21:14.783Z,35.28
2023-10-20T09:23:55.451Z,43.00
2023-10-20T09:26:24.863Z,47.38
2023-10-20T09:28:55.449Z,34.17
2023-10-20T09:31:25.424Z,46.38
2023-10-20T09:33:53.903Z,39.15
2023-10-20T09:36:24.295Z,35.67
2023-10-20T09:38:55.590Z,39.33
2023-10-20T09:41:25.532Z,34.40
2023-10-20T09:43:55.086Z,38.83
2023-10-20T09:46:39.389Z,44.63
2023-10-20T09:49:15.752Z,47.28
2023-10-20T09:51:47.740Z,43.33
2023-10-20T09:54:19.988Z,46.05
2023-10-20T09:56:50.649Z,35.92
2023-10-20T09:59:21.457Z,42.85
2023-10-20T10:01:50.407Z,41.40
2023-10-20T10:04:28.426Z,43.15
2023-10-20T10:06:57.829Z,44.45
2023-10-20T10:09:37.133Z,41.95
2023-10-20T10:12:10.096Z,43.67
2023-10-20T10:14:38.657Z,39.67
2023-10-20T10:17:11.128Z,41.42
2023-10-20T10:19:51.075Z,45.42
2023-10-20T10:22:19.610Z,44.80
2023-10-20T10:24:54.754Z,45.92
2023-10-20T10:27:24.702Z,47.88
2023-10-20T10:29:55.718Z,51.83
2023-10-20T10:32:28.108Z,49.63
2023-10-20T10:34:58.175Z,42.55
2023-10-20T10:37:33.098Z,50.25
2023-10-20T10:40:10.734Z,45.60
2023-10-20T10:42:44.328Z,63.85
2023-10-20T10:45:22.929Z,45.25
2023-10-20T10:47:52.476Z,45.97
2023-10-20T10:50:22.440Z,46.80
2023-10-20T10:52:53.051Z,56.78
2023-10-20T10:55:23.677Z,50.83
2023-10-20T10:57:52.324Z,47.60
2023-10-20T11:00:23.002Z,45.30
2023-10-20T11:02:52.384Z,40.45
2023-10-20T11:05:21.928Z,49.63
2023-10-20T11:08:02.634Z,45.72
2023-10-20T11:10:34.500Z,42.05
2023-10-20T11:13:07.844Z,43.63
2023-10-20T11:15:36.427Z,40.17
2023-10-20T11:18:08.069Z,38.53
2023-10-20T11:20:39.982Z,39.33
2023-10-20T11:23:09.395Z,41.83
2023-10-20T11:25:39.307Z,35.53
2023-10-20T11:28:09.242Z,34.00
2023-10-20T11:30:40.414Z,38.08
2023-10-20T11:33:15.229Z,36.72
2023-10-20T11:35:45.214Z,36.72
2023-10-20T11:38:15.782Z,34.90
2023-10-20T11:40:48.880Z,37.72
2023-10-20T11:43:17.536Z,36.05
2023-10-20T11:45:46.423Z,35.92
2023-10-20T11:48:14.702Z,35.80
2023-10-20T11:50:42.909Z,36.70
2023-10-20T11:53:11.038Z,35.05
2023-10-20T11:55:40.983Z,32.65
2023-10-20T11:58:10.746Z,36.60
2023-10-20T12:00:42.651Z,35.28
2023-10-20T12:03:11.029Z,33.88
2023-10-20T12:05:39.314Z,38.20
2023-10-20T12:08:08.005Z,32.25
2023-10-20T12:10:36.142Z,35.08
2023-10-20T12:13:05.539Z,34.28
2023-10-20T12:15:35.320Z,36.20
2023-10-20T12:18:03.676Z,40.33
2023-10-20T12:20:32.642Z,33.78
2023-10-20T12:23:01.077Z,33.50
2023-10-20T12:25:29.383Z,33.40
2023-10-20T12:27:57.516Z,30.35
2023-10-20T12:30:27.712Z,33.22
2023-10-20T12:32:57.415Z,33.28
2023-10-20T12:35:26.701Z,32.25
2023-10-20T12:37:55.643Z,32.85
2023-10-20T12:40:23.997Z,33.33
2023-10-20T12:42:52.305Z,33.42
2023-10-20T12:45:20.347Z,32.25
2023-10-20T12:47:48.551Z,35.92
2023-10-20T12:50:18.195Z,32.22
2023-10-20T12:52:46.385Z,33.90
2023-10-20T12:55:15.135Z,38.75
2023-10-20T12:57:43.730Z,35.38
2023-10-20T13:00:13.012Z,38.05
2023-10-20T13:02:41.502Z,36.25
2023-10-20T13:05:11.122Z,35.60
2023-10-20T13:07:40.571Z,36.15
2023-10-20T13:10:10.381Z,33.35
2023-10-20T13:12:38.964Z,32.78
2023-10-20T13:15:10.993Z,35.75
2023-10-20T13:17:39.630Z,34.85
2023-10-20T13:20:09.668Z,35.28
2023-10-20T13:22:38.032Z,34.85
2023-10-20T13:25:08.904Z,34.42
2023-10-20T13:27:37.423Z,37.28
2023-10-20T13:30:06.089Z,36.28
2023-10-20T13:32:34.338Z,35.40
2023-10-20T13:35:02.800Z,36.03
2023-10-20T13:37:31.421Z,41.88
2023-10-20T13:40:00.635Z,36.30
2023-10-20T13:42:30.195Z,33.25
2023-10-20T13:44:58.835Z,42.40
2023-10-20T13:47:27.196Z,43.35
2023-10-20T13:49:55.391Z,39.72
2023-10-20T13:52:23.520Z,43.80
2023-10-20T13:54:51.710Z,35.67
2023-10-20T13:57:21.388Z,39.40
2023-10-20T13:59:51.092Z,39.20
2023-10-20T14:02:20.104Z,38.17
2023-10-20T14:04:48.327Z,34.30
2023-10-20T14:07:16.736Z,44.42
2023-10-20T14:09:44.836Z,38.53
2023-10-20T14:12:12.974Z,36.88
2023-10-20T14:14:41.081Z,37.63
2023-10-20T14:17:10.821Z,37.40
2023-10-20T14:19:38.857Z,44.70
2023-10-20T14:22:06.916Z,42.75
2023-10-20T14:24:35.250Z,41.08
2023-10-20T14:27:03.456Z,37.67
2023-10-20T14:29:31.627Z,42.85
2023-10-20T14:31:59.869Z,44.95
2023-10-20T14:34:29.381Z,41.63
2023-10-20T14:36:57.665Z,40.03
2023-10-20T14:39:25.892Z,41.03
2023-10-20T14:41:54.138Z,39.45
2023-10-20T14:44:22.452Z,36.88
2023-10-20T14:46:50.808Z,37.67
2023-10-20T14:49:19.281Z,43.58
2023-10-20T14:51:48.845Z,40.70
2023-10-20T14:54:17.354Z,46.58
2023-10-20T14:56:45.623Z,47.22
2023-10-20T14:59:14.041Z,37.95
2023-10-20T15:01:42.333Z,47.42
2023-10-20T15:04:26.821Z,46.33
2023-10-20T15:06:59.513Z,44.45
2023-10-20T15:09:27.873Z,39.33
2023-10-20T15:11:56.308Z,42.35
2023-10-20T15:14:24.685Z,37.97
2023-10-20T15:16:52.919Z,40.35
2023-10-20T15:19:21.101Z,41.65
2023-10-20T15:21:49.445Z,45.20
2023-10-20T15:24:19.016Z,49.53
2023-10-20T15:26:48.935Z,45.85
2023-10-20T15:29:17.108Z,49.20
2023-10-20T15:31:45.337Z,39.95
2023-10-20T15:34:14.966Z,55.30
2023-10-20T15:36:48.419Z,44.78
2023-10-20T15:39:40.314Z,53.20
2023-10-20T15:42:07.270Z,43.33
2023-10-20T15:44:35.459Z,43.05
2023-10-20T15:47:05.412Z,42.08
2023-10-20T15:49:34.053Z,41.10
2023-10-20T15:52:02.593Z,40.40
2023-10-20T15:54:35.218Z,40.75
2023-10-20T15:57:03.538Z,39.20
2023-10-20T15:59:32.885Z,39.95
2023-10-20T16:02:01.107Z,37.95
2023-10-20T16:04:29.534Z,42.30
2023-10-20T16:06:57.780Z,37.65
2023-10-20T16:09:25.871Z,44.83
2023-10-20T16:11:55.481Z,42.72
2023-10-20T16:14:23.565Z,43.25
2023-10-20T16:16:51.732Z,38.72
2023-10-20T16:19:20.830Z,41.15
2023-10-20T16:21:48.995Z,49.67
2023-10-20T16:24:17.497Z,51.45
2023-10-20T16:26:45.685Z,51.13
2023-10-20T16:29:15.378Z,53.95
2023-10-20T16:31:43.766Z,35.17
2023-10-20T16:34:11.955Z,45.20
2023-10-20T16:36:40.204Z,43.38
2023-10-20T16:39:08.434Z,47.30
2023-10-20T16:41:36.692Z,40.42
2023-10-20T16:44:05.852Z,38.72
2023-10-20T16:46:38.602Z,44.20
2023-10-20T16:49:06.824Z,41.05
2023-10-20T16:51:34.912Z,38.22
2023-10-20T16:54:03.300Z,36.65
2023-10-20T16:56:31.962Z,40.67
2023-10-20T16:59:00.811Z,39.67
2023-10-20T17:01:30.408Z,39.20
2023-10-20T17:04:00.075Z,40.15
2023-10-20T17:06:28.775Z,42.97
2023-10-20T17:08:57.591Z,37.22
2023-10-20T17:11:25.951Z,39.25
2023-10-20T17:13:54.368Z,40.15
2023-10-20T17:16:22.600Z,40.60
2023-10-20T17:18:50.767Z,42.45
2023-10-20T17:21:20.298Z,38.38
2023-10-20T17:23:48.647Z,40.67
2023-10-20T17:26:16.811Z,47.42
2023-10-20T17:28:44.948Z,39.33
2023-10-20T17:31:13.037Z,42.67
2023-10-20T17:33:41.254Z,40.45
2023-10-20T17:36:11.675Z,42.88
2023-10-20T17:38:41.455Z,40.47
2023-10-20T17:41:10.383Z,43.03
2023-10-20T17:43:39.697Z,37.47
2023-10-20T17:46:11.710Z,42.83
2023-10-20T17:48:40.449Z,42.30
2023-10-20T17:51:08.741Z,43.25
2023-10-20T17:53:36.925Z,43.75
2023-10-20T17:56:07.519Z,42.17
2023-10-20T17:58:36.016Z,49.97
2023-10-20T18:01:05.891Z,43.55
2023-10-20T18:03:34.298Z,45.65
2023-10-20T18:06:10.731Z,50.28
2023-10-20T18:08:40.248Z,39.78
2023-10-20T18:11:11.502Z,41.33
2023-10-20T18:13:41.864Z,48.10
2023-10-20T18:16:10.873Z,39.10
2023-10-20T18:18:40.887Z,55.35
2023-10-20T18:21:09.837Z,38.42
2023-10-20T18:23:38.191Z,51.72
2023-10-20T18:26:09.427Z,34.70
2023-10-20T18:28:37.757Z,36.10
2023-10-20T18:31:12.731Z,40.22
2023-10-20T18:33:41.513Z,42.42
2023-10-20T18:36:09.994Z,38.50
2023-10-20T18:38:38.202Z,40.47
2023-10-20T18:41:06.404Z,40.33
2023-10-20T18:43:35.921Z,47.10
2023-10-20T18:46:04.094Z,37.00
2023-10-20T18:48:32.402Z,36.80
2023-10-20T18:51:05.409Z,44.20
2023-10-20T18:53:33.663Z,34.63
2023-10-20T18:56:01.789Z,36.17
2023-10-20T18:58:30.306Z,35.22
2023-10-20T19:01:00.069Z,38.00
2023-10-20T19:03:28.955Z,36.05
2023-10-20T19:05:57.536Z,41.63
2023-10-20T19:08:25.951Z,52.22
2023-10-20T19:10:54.199Z,36.92
2023-10-20T19:13:22.424Z,41.85
2023-10-20T19:15:51.344Z,38.30
2023-10-20T19:18:20.968Z,37.58
2023-10-20T19:20:49.148Z,41.28
2023-10-20T19:23:17.349Z,40.92
2023-10-20T19:25:45.519Z,45.63
2023-10-20T19:28:17.159Z,44.15
2023-10-20T19:30:45.290Z,46.83
2023-10-20T19:33:13.452Z,41.65
2023-10-20T19:35:43.055Z,38.03
2023-10-20T19:38:13.194Z,40.42
2023-10-20T19:40:41.385Z,36.65
2023-10-20T19:43:09.436Z,47.78
2023-10-20T19:45:37.534Z,46.63
2023-10-20T19:48:06.725Z,47.17
2023-10-20T19:50:37.378Z,48.15
2023-10-20T19:53:07.794Z,49.22
2023-10-20T19:55:36.107Z,46.85
2023-10-20T19:58:04.755Z,45.17
2023-10-20T20:00:33.938Z,47.53
2023-10-20T20:03:02.379Z,45.40
2023-10-20T20:05:31.426Z,44.05
2023-10-20T20:07:59.617Z,48.83
2023-10-20T20:10:29.050Z,47.20
2023-10-20T20:12:57.182Z,40.15
2023-10-20T20:15:25.321Z,39.40
2023-10-20T20:17:53.489Z,47.35
2023-10-20T20:20:21.812Z,45.45
2023-10-20T20:22:49.863Z,47.80
2023-10-20T20:25:17.984Z,47.88
2023-10-20T20:27:47.551Z,44.13
2023-10-20T20:30:15.902Z,44.10
2023-10-20T20:32:44.681Z,47.22
2023-10-20T20:35:12.878Z,41.50
2023-10-20T20:37:41.285Z,39.58
2023-10-20T20:40:10.130Z,36.95
2023-10-20T20:42:38.497Z,41.38
2023-10-20T20:45:09.723Z,43.53
2023-10-20T20:47:37.888Z,43.05
2023-10-20T20:50:13.071Z,40.08
2023-10-20T20:52:45.080Z,43.67
2023-10-20T20:55:13.388Z,42.50
2023-10-20T20:57:41.475Z,43.75
2023-10-20T21:00:13.761Z,43.38
2023-10-20T21:02:42.096Z,42.47
2023-10-20T21:05:10.682Z,39.08
2023-10-20T21:07:38.778Z,39.22
2023-10-20T21:10:09.475Z,39.75
2023-10-20T21:12:37.827Z,36.25
2023-10-20T21:15:08.821Z,36.15
2023-10-20T21:17:39.142Z,36.88
2023-10-20T21:20:09.565Z,38.42
2023-10-20T21:22:37.872Z,38.92
2023-10-20T21:25:07.246Z,37.13
2023-10-20T21:27:35.296Z,35.67
2023-10-20T21:30:04.305Z,37.97
2023-10-20T21:32:32.467Z,39.42
2023-10-20T21:35:02.098Z,40.42
2023-10-20T21:37:30.218Z,49.15
2023-10-20T21:39:58.395Z,47.05
2023-10-20T21:42:26.645Z,48.05
2023-10-20T21:44:55.713Z,49.33
2023-10-20T21:47:24.538Z,50.85
2023-10-20T21:49:52.712Z,49.42
2023-10-20T21:52:22.148Z,52.92
2023-10-20T21:54:51.737Z,46.03
2023-10-20T21:57:19.883Z,50.58
2023-10-20T21:59:48.136Z,45.80
2023-10-20T22:02:16.678Z,45.70
2023-10-20T22:04:44.858Z,44.33
2023-10-20T22:07:13.024Z,44.90
2023-10-20T22:09:52.936Z,45.10
2023-10-20T22:12:22.892Z,40.40
2023-10-20T22:14:51.487Z,43.13
2023-10-20T22:17:19.842Z,40.25
2023-10-20T22:19:48.106Z,43.97
2023-10-20T22:22:16.314Z,45.10
2023-10-20T22:24:45.940Z,46.83
2023-10-20T22:27:14.198Z,45.67
2023-10-20T22:29:42.402Z,44.22
2023-10-20T22:32:10.784Z,43.35
2023-10-20T22:34:38.912Z,46.08
2023-10-20T22:37:07.227Z,44.80
2023-10-20T22:39:38.532Z,43.25
2023-10-20T22:42:08.474Z,48.60
2023-10-20T22:44:36.570Z,45.00
2023-10-20T22:47:05.172Z,45.80
2023-10-20T22:49:33.311Z,40.20
2023-10-20T22:52:01.496Z,40.65
2023-10-20T22:54:29.774Z,45.05
2023-10-20T22:56:57.940Z,40.40
2023-10-20T22:59:27.526Z,40.75
2023-10-20T23:01:55.703Z,37.97
2023-10-20T23:04:24.388Z,41.78
2023-10-20T23:06:53.877Z,42.30
2023-10-20T23:09:22.492Z,39.42
2023-10-20T23:11:50.714Z,41.42
2023-10-20T23:14:18.990Z,40.45
2023-10-20T23:16:48.782Z,36.53
2023-10-20T23:19:16.940Z,36.50
2023-10-20T23:21:45.141Z,35.70
2023-10-20T23:24:13.406Z,39.05
2023-10-20T23:26:41.963Z,37.97
2023-10-20T23:29:10.083Z,42.83
2023-10-20T23:31:38.220Z,39.92
2023-10-20T23:34:07.834Z,38.60
2023-10-20T23:36:35.998Z,40.15
2023-10-20T23:39:04.923Z,39.25
2023-10-20T23:41:33.689Z,36.70
2023-10-20T23:44:02.164Z,39.72
2023-10-20T23:46:30.445Z,37.97
2023-10-20T23:48:58.627Z,39.13
2023-10-20T23:51:28.230Z,38.53
2023-10-20T23:53:56.356Z,39.03
2023-10-20T23:56:26.293Z,39.55
2023-10-20T23:58:54.341Z,37.15
